sensor_id;sensor_type;location;lat;lon;timestamp;temperature;humidity
11619;DHT22;5865;48.776;9.280;2024-01-11T00:05:04;-6.70;99.90
11619;DHT22;5865;48.776;9.280;2024-01-11T00:17:31;-6.50;99.90
11619;DHT22;5865;48.776;9.280;2024-01-11T00:19:58;-6.50;99.90
11619;DHT22;5865;48.776;9.280;2024-01-11T00:22:26;-6.60;99.90
11619;DHT22;5865;48.776;9.280;2024-01-11T00:24:53;-6.50;99.90
11619;DHT22;5865;48.776;9.280;2024-01-11T00:27:20;-6.50;99.90
11619;DHT22;5865;48.776;9.280;2024-01-11T00:32:19;-6.60;99.90
11619;DHT22;5865;48.776;9.280;2024-01-11T00:34:49;-6.70;99.90
11619;DHT22;5865;48.776;9.280;2024-01-11T00:39:44;-6.70;99.90
11619;DHT22;5865;48.776;9.280;2024-01-11T00:42:11;-6.60;99.90
11619;DHT22;5865;48.776;9.280;2024-01-11T00:44:39;-6.70;99.90
11619;DHT22;5865;48.776;9.280;2024-01-11T00:47:06;-6.70;99.90
11619;DHT22;5865;48.776;9.280;2024-01-11T00:49:33;-6.70;99.90
11619;DHT22;5865;48.776;9.280;2024-01-11T00:57:01;-6.80;99.90
11619;DHT22;5865;48.776;9.280;2024-01-11T01:04:23;-6.70;99.90
11619;DHT22;5865;48.776;9.280;2024-01-11T01:14:17;-6.40;99.90
11619;DHT22;5865;48.776;9.280;2024-01-11T01:19:12;-6.40;99.90
11619;DHT22;5865;48.776;9.280;2024-01-11T01:21:39;-6.60;99.90
11619;DHT22;5865;48.776;9.280;2024-01-11T01:24:07;-6.70;99.90
11619;DHT22;5865;48.776;9.280;2024-01-11T01:26:36;-6.70;99.90
11619;DHT22;5865;48.776;9.280;2024-01-11T01:29:03;-6.80;99.90
11619;DHT22;5865;48.776;9.280;2024-01-11T01:34:02;-6.70;99.90
11619;DHT22;5865;48.776;9.280;2024-01-11T01:36:29;-6.60;99.90
11619;DHT22;5865;48.776;9.280;2024-01-11T01:46:23;-6.80;99.90
11619;DHT22;5865;48.776;9.280;2024-01-11T01:48:50;-6.90;99.90
11619;DHT22;5865;48.776;9.280;2024-01-11T01:51:18;-6.80;99.90
11619;DHT22;5865;48.776;9.280;2024-01-11T01:53:46;-6.80;99.90
11619;DHT22;5865;48.776;9.280;2024-01-11T01:56:15;-6.90;99.90
11619;DHT22;5865;48.776;9.280;2024-01-11T02:01:14;-6.80;99.90
11619;DHT22;5865;48.776;9.280;2024-01-11T02:03:43;-6.90;99.90
11619;DHT22;5865;48.776;9.280;2024-01-11T02:06:13;-6.90;99.90
11619;DHT22;5865;48.776;9.280;2024-01-11T02:08:41;-7.00;99.90
11619;DHT22;5865;48.776;9.280;2024-01-11T02:16:06;-7.00;99.90
11619;DHT22;5865;48.776;9.280;2024-01-11T02:18:35;-7.00;99.90
11619;DHT22;5865;48.776;9.280;2024-01-11T02:21:03;-7.00;99.90
11619;DHT22;5865;48.776;9.280;2024-01-11T02:23:33;-7.00;99.90
11619;DHT22;5865;48.776;9.280;2024-01-11T02:26:03;-7.10;99.90
11619;DHT22;5865;48.776;9.280;2024-01-11T02:31:04;-7.20;99.90
11619;DHT22;5865;48.776;9.280;2024-01-11T02:33:31;-7.10;99.90
11619;DHT22;5865;48.776;9.280;2024-01-11T02:40:55;-7.10;99.90
11619;DHT22;5865;48.776;9.280;2024-01-11T02:43:25;-7.00;99.90
11619;DHT22;5865;48.776;9.280;2024-01-11T02:45:54;-6.90;99.90
11619;DHT22;5865;48.776;9.280;2024-01-11T02:48:27;-7.00;99.90
11619;DHT22;5865;48.776;9.280;2024-01-11T02:50:56;-7.00;99.90
11619;DHT22;5865;48.776;9.280;2024-01-11T02:53:23;-7.10;99.90
11619;DHT22;5865;48.776;9.280;2024-01-11T02:55:50;-7.10;99.90
11619;DHT22;5865;48.776;9.280;2024-01-11T03:03:13;-7.20;99.90
11619;DHT22;5865;48.776;9.280;2024-01-11T03:05:40;-7.20;99.90
11619;DHT22;5865;48.776;9.280;2024-01-11T03:15:32;-7.40;99.90
11619;DHT22;5865;48.776;9.280;2024-01-11T03:18:03;-7.30;99.90
11619;DHT22;5865;48.776;9.280;2024-01-11T03:20:31;-7.30;99.90
11619;DHT22;5865;48.776;9.280;2024-01-11T03:27:54;-7.50;99.90
11619;DHT22;5865;48.776;9.280;2024-01-11T03:30:28;-7.50;99.90
11619;DHT22;5865;48.776;9.280;2024-01-11T03:40:21;-7.40;99.90
11619;DHT22;5865;48.776;9.280;2024-01-11T03:42:48;-7.30;99.90
11619;DHT22;5865;48.776;9.280;2024-01-11T03:45:18;-7.30;99.90
11619;DHT22;5865;48.776;9.280;2024-01-11T03:47:45;-7.40;99.90
11619;DHT22;5865;48.776;9.280;2024-01-11T03:52:43;-7.50;99.90
11619;DHT22;5865;48.776;9.280;2024-01-11T03:55:10;-7.50;99.90
11619;DHT22;5865;48.776;9.280;2024-01-11T04:00:06;-7.50;99.90
11619;DHT22;5865;48.776;9.280;2024-01-11T04:02:35;-7.50;99.90
11619;DHT22;5865;48.776;9.280;2024-01-11T04:05:02;-7.50;99.90
11619;DHT22;5865;48.776;9.280;2024-01-11T04:07:29;-7.60;99.90
11619;DHT22;5865;48.776;9.280;2024-01-11T04:09:59;-7.60;99.90
11619;DHT22;5865;48.776;9.280;2024-01-11T04:12:27;-7.60;99.90
11619;DHT22;5865;48.776;9.280;2024-01-11T04:17:21;-7.50;99.90
11619;DHT22;5865;48.776;9.280;2024-01-11T04:19:49;-7.60;99.90
11619;DHT22;5865;48.776;9.280;2024-01-11T04:39:42;-7.60;99.90
11619;DHT22;5865;48.776;9.280;2024-01-11T07:47:03;-7.00;99.90
11619;DHT22;5865;48.776;9.280;2024-01-11T07:49:29;-7.00;99.90
11619;DHT22;5865;48.776;9.280;2024-01-11T07:51:56;-7.00;99.90
11619;DHT22;5865;48.776;9.280;2024-01-11T07:56:52;-7.10;99.90
11619;DHT22;5865;48.776;9.280;2024-01-11T08:01:46;-6.90;99.90
11619;DHT22;5865;48.776;9.280;2024-01-11T08:04:14;-7.00;99.90
11619;DHT22;5865;48.776;9.280;2024-01-11T08:06:41;-7.00;99.90
11619;DHT22;5865;48.776;9.280;2024-01-11T08:09:08;-7.00;99.90
11619;DHT22;5865;48.776;9.280;2024-01-11T08:11:36;-7.00;99.90
11619;DHT22;5865;48.776;9.280;2024-01-11T08:14:05;-6.80;99.90
11619;DHT22;5865;48.776;9.280;2024-01-11T08:26:22;-6.40;99.90
11619;DHT22;5865;48.776;9.280;2024-01-11T08:28:50;-6.30;99.90
11619;DHT22;5865;48.776;9.280;2024-01-11T08:31:18;-6.20;99.90
11619;DHT22;5865;48.776;9.280;2024-01-11T08:36:13;-6.00;99.90
11619;DHT22;5865;48.776;9.280;2024-01-11T08:43:34;-5.70;99.90
11619;DHT22;5865;48.776;9.280;2024-01-11T08:46:01;-4.40;99.90
11619;DHT22;5865;48.776;9.280;2024-01-11T08:50:57;-5.40;99.90
11619;DHT22;5865;48.776;9.280;2024-01-11T08:55:52;-4.90;99.90
11619;DHT22;5865;48.776;9.280;2024-01-11T09:00:47;-4.90;99.90
11619;DHT22;5865;48.776;9.280;2024-01-11T09:05:43;-4.80;99.90
11619;DHT22;5865;48.776;9.280;2024-01-11T09:08:10;-4.80;99.90
11619;DHT22;5865;48.776;9.280;2024-01-11T09:10:37;-4.70;99.90
11619;DHT22;5865;48.776;9.280;2024-01-11T09:13:04;-4.60;99.90
11619;DHT22;5865;48.776;9.280;2024-01-11T09:15:31;-4.40;99.90
11619;DHT22;5865;48.776;9.280;2024-01-11T09:17:59;-4.30;99.90
11619;DHT22;5865;48.776;9.280;2024-01-11T09:20:26;-4.30;99.90
11619;DHT22;5865;48.776;9.280;2024-01-11T09:22:55;-4.20;99.90
11619;DHT22;5865;48.776;9.280;2024-01-11T09:27:49;-4.00;99.90
11619;DHT22;5865;48.776;9.280;2024-01-11T09:30:20;-3.90;99.90
11619;DHT22;5865;48.776;9.280;2024-01-11T09:33:04;-3.80;99.90
11619;DHT22;5865;48.776;9.280;2024-01-11T09:35:35;-3.80;99.90
11619;DHT22;5865;48.776;9.280;2024-01-11T09:38:04;-3.60;99.90
11619;DHT22;5865;48.776;9.280;2024-01-11T09:40:31;-3.50;99.90
11619;DHT22;5865;48.776;9.280;2024-01-11T09:43:02;-3.50;99.90
11619;DHT22;5865;48.776;9.280;2024-01-11T09:45:31;-3.40;99.90
11619;DHT22;5865;48.776;9.280;2024-01-11T09:50:25;-3.30;99.90
11619;DHT22;5865;48.776;9.280;2024-01-11T09:52:52;-2.40;99.90
11619;DHT22;5865;48.776;9.280;2024-01-11T09:57:52;-2.70;99.90
11619;DHT22;5865;48.776;9.280;2024-01-11T10:00:23;-2.60;99.90
11619;DHT22;5865;48.776;9.280;2024-01-11T10:05:18;-2.50;99.90
11619;DHT22;5865;48.776;9.280;2024-01-11T10:07:47;-2.40;99.90
11619;DHT22;5865;48.776;9.280;2024-01-11T10:10:14;-2.30;99.90
11619;DHT22;5865;48.776;9.280;2024-01-11T10:15:11;-2.20;99.90
11619;DHT22;5865;48.776;9.280;2024-01-11T10:17:41;-2.00;99.90
11619;DHT22;5865;48.776;9.280;2024-01-11T10:20:10;-1.90;99.90
11619;DHT22;5865;48.776;9.280;2024-01-11T10:22:39;-1.80;99.90
11619;DHT22;5865;48.776;9.280;2024-01-11T10:25:10;-1.80;99.90
11619;DHT22;5865;48.776;9.280;2024-01-11T10:27:38;-1.60;99.90
11619;DHT22;5865;48.776;9.280;2024-01-11T10:30:07;-1.70;99.90
11619;DHT22;5865;48.776;9.280;2024-01-11T10:35:01;-1.60;99.90
11619;DHT22;5865;48.776;9.280;2024-01-11T10:37:31;-1.60;99.90
11619;DHT22;5865;48.776;9.280;2024-01-11T10:40:03;-1.70;99.90
11619;DHT22;5865;48.776;9.280;2024-01-11T10:42:36;-1.60;99.90
11619;DHT22;5865;48.776;9.280;2024-01-11T10:45:10;-1.60;99.90
11619;DHT22;5865;48.776;9.280;2024-01-11T10:47:39;-1.30;99.90
11619;DHT22;5865;48.776;9.280;2024-01-11T10:50:09;-1.20;99.90
11619;DHT22;5865;48.776;9.280;2024-01-11T10:52:42;-1.20;99.90
11619;DHT22;5865;48.776;9.280;2024-01-11T10:55:10;-0.90;99.90
11619;DHT22;5865;48.776;9.280;2024-01-11T10:57:37;-1.10;99.90
11619;DHT22;5865;48.776;9.280;2024-01-11T11:00:07;-1.10;99.90
11619;DHT22;5865;48.776;9.280;2024-01-11T11:02:37;-1.00;99.90
11619;DHT22;5865;48.776;9.280;2024-01-11T11:05:07;-1.00;99.90
11619;DHT22;5865;48.776;9.280;2024-01-11T11:07:35;-0.80;99.90
11619;DHT22;5865;48.776;9.280;2024-01-11T11:10:05;-0.80;99.90
11619;DHT22;5865;48.776;9.280;2024-01-11T11:12:32;-0.70;99.90
11619;DHT22;5865;48.776;9.280;2024-01-11T11:15:01;-0.50;99.90
11619;DHT22;5865;48.776;9.280;2024-01-11T11:17:30;-0.40;99.90
11619;DHT22;5865;48.776;9.280;2024-01-11T11:19:57;-0.30;99.90
11619;DHT22;5865;48.776;9.280;2024-01-11T11:22:26;0.00;99.90
11619;DHT22;5865;48.776;9.280;2024-01-11T11:27:31;0.30;99.90
11619;DHT22;5865;48.776;9.280;2024-01-11T11:32:36;3.10;99.90
11619;DHT22;5865;48.776;9.280;2024-01-11T11:35:04;0.60;99.90
11619;DHT22;5865;48.776;9.280;2024-01-11T11:37:31;0.60;99.90
11619;DHT22;5865;48.776;9.280;2024-01-11T11:39:58;0.60;99.90
11619;DHT22;5865;48.776;9.280;2024-01-11T11:42:25;0.70;99.90
11619;DHT22;5865;48.776;9.280;2024-01-11T11:44:54;0.70;99.90
11619;DHT22;5865;48.776;9.280;2024-01-11T11:47:23;0.60;99.90
11619;DHT22;5865;48.776;9.280;2024-01-11T11:50:07;0.50;99.90
11619;DHT22;5865;48.776;9.280;2024-01-11T11:52:37;0.40;99.90
11619;DHT22;5865;48.776;9.280;2024-01-11T11:55:08;0.50;99.90
11619;DHT22;5865;48.776;9.280;2024-01-11T11:57:36;0.30;99.90
11619;DHT22;5865;48.776;9.280;2024-01-11T12:00:04;0.30;99.90
11619;DHT22;5865;48.776;9.280;2024-01-11T12:05:10;0.30;99.90
11619;DHT22;5865;48.776;9.280;2024-01-11T12:07:37;0.40;99.90
11619;DHT22;5865;48.776;9.280;2024-01-11T12:10:05;0.40;99.90
11619;DHT22;5865;48.776;9.280;2024-01-11T12:12:32;0.40;99.90
11619;DHT22;5865;48.776;9.280;2024-01-11T12:15:00;0.40;99.90
11619;DHT22;5865;48.776;9.280;2024-01-11T12:17:27;0.70;99.90
11619;DHT22;5865;48.776;9.280;2024-01-11T12:34:45;0.90;99.90
11619;DHT22;5865;48.776;9.280;2024-01-11T12:37:16;0.80;99.90
11619;DHT22;5865;48.776;9.280;2024-01-11T12:44:46;1.00;99.90
11619;DHT22;5865;48.776;9.280;2024-01-11T12:49:43;1.20;99.90
11619;DHT22;5865;48.776;9.280;2024-01-11T12:52:15;1.10;99.90
11619;DHT22;5865;48.776;9.280;2024-01-11T12:54:43;1.10;99.90
11619;DHT22;5865;48.776;9.280;2024-01-11T12:57:12;1.00;99.90
11619;DHT22;5865;48.776;9.280;2024-01-11T13:14:31;0.90;99.90
11619;DHT22;5865;48.776;9.280;2024-01-11T13:16:58;0.80;99.90
11619;DHT22;5865;48.776;9.280;2024-01-11T13:26:48;0.80;99.90
11619;DHT22;5865;48.776;9.280;2024-01-11T13:29:15;0.80;99.90
11619;DHT22;5865;48.776;9.280;2024-01-11T13:31:43;0.80;99.90
11619;DHT22;5865;48.776;9.280;2024-01-11T13:34:10;0.90;99.90
11619;DHT22;5865;48.776;9.280;2024-01-11T13:39:05;0.80;99.90
11619;DHT22;5865;48.776;9.280;2024-01-11T13:41:33;0.90;99.90
11619;DHT22;5865;48.776;9.280;2024-01-11T13:44:00;0.90;99.90
11619;DHT22;5865;48.776;9.280;2024-01-11T13:48:56;1.00;99.90
11619;DHT22;5865;48.776;9.280;2024-01-11T13:51:22;1.00;99.90
11619;DHT22;5865;48.776;9.280;2024-01-11T13:53:49;1.00;99.90
11619;DHT22;5865;48.776;9.280;2024-01-11T13:56:16;1.00;99.90
11619;DHT22;5865;48.776;9.280;2024-01-11T13:58:43;1.00;99.90
11619;DHT22;5865;48.776;9.280;2024-01-11T14:01:10;1.00;99.90
11619;DHT22;5865;48.776;9.280;2024-01-11T14:03:37;1.00;99.90
11619;DHT22;5865;48.776;9.280;2024-01-11T14:06:06;1.00;99.90
11619;DHT22;5865;48.776;9.280;2024-01-11T14:11:00;1.60;99.90
11619;DHT22;5865;48.776;9.280;2024-01-11T14:13:27;6.20;99.90
11619;DHT22;5865;48.776;9.280;2024-01-11T14:15:54;3.20;99.90
11619;DHT22;5865;48.776;9.280;2024-01-11T14:18:21;3.90;99.90
11619;DHT22;5865;48.776;9.280;2024-01-11T14:23:17;4.50;99.90
11619;DHT22;5865;48.776;9.280;2024-01-11T14:28:11;4.90;99.90
11619;DHT22;5865;48.776;9.280;2024-01-11T14:30:37;5.10;99.90
11619;DHT22;5865;48.776;9.280;2024-01-11T14:40:27;3.90;99.90
11619;DHT22;5865;48.776;9.280;2024-01-11T14:42:54;3.90;99.90
11619;DHT22;5865;48.776;9.280;2024-01-11T14:47:48;4.10;99.90
11619;DHT22;5865;48.776;9.280;2024-01-11T14:50:15;3.90;99.90
11619;DHT22;5865;48.776;9.280;2024-01-11T14:55:15;3.40;99.90
11619;DHT22;5865;48.776;9.280;2024-01-11T14:57:50;3.80;99.90
11619;DHT22;5865;48.776;9.280;2024-01-11T15:00:31;3.90;99.90
11619;DHT22;5865;48.776;9.280;2024-01-11T15:02:58;3.90;99.90
11619;DHT22;5865;48.776;9.280;2024-01-11T15:05:24;3.90;99.90
11619;DHT22;5865;48.776;9.280;2024-01-11T15:07:51;4.00;99.90
11619;DHT22;5865;48.776;9.280;2024-01-11T15:10:19;4.00;99.90
11619;DHT22;5865;48.776;9.280;2024-01-11T15:12:46;3.80;99.90
11619;DHT22;5865;48.776;9.280;2024-01-11T15:15:14;2.80;99.90
11619;DHT22;5865;48.776;9.280;2024-01-11T15:20:09;0.70;99.90
11619;DHT22;5865;48.776;9.280;2024-01-11T15:22:36;0.50;99.90
11619;DHT22;5865;48.776;9.280;2024-01-11T15:25:04;-0.30;99.90
11619;DHT22;5865;48.776;9.280;2024-01-11T15:27:31;-0.30;99.90
11619;DHT22;5865;48.776;9.280;2024-01-11T15:29:58;-0.90;99.90
11619;DHT22;5865;48.776;9.280;2024-01-11T15:32:26;-0.90;99.90
11619;DHT22;5865;48.776;9.280;2024-01-11T15:37:20;-1.30;99.90
11619;DHT22;5865;48.776;9.280;2024-01-11T15:39:48;-1.30;99.90
11619;DHT22;5865;48.776;9.280;2024-01-11T15:42:15;-1.40;99.90
11619;DHT22;5865;48.776;9.280;2024-01-11T15:44:43;-1.50;99.90
11619;DHT22;5865;48.776;9.280;2024-01-11T15:47:10;-1.50;99.90
11619;DHT22;5865;48.776;9.280;2024-01-11T15:49:38;-1.60;99.90
11619;DHT22;5865;48.776;9.280;2024-01-11T15:52:06;-1.80;99.90
11619;DHT22;5865;48.776;9.280;2024-01-11T15:54:33;-1.90;99.90
11619;DHT22;5865;48.776;9.280;2024-01-11T15:57:00;-2.20;99.90
11619;DHT22;5865;48.776;9.280;2024-01-11T15:59:27;-2.40;99.90
11619;DHT22;5865;48.776;9.280;2024-01-11T16:01:53;-2.50;99.90
11619;DHT22;5865;48.776;9.280;2024-01-11T16:04:20;-2.60;99.90
11619;DHT22;5865;48.776;9.280;2024-01-11T16:06:49;-2.70;99.90
11619;DHT22;5865;48.776;9.280;2024-01-11T16:09:16;-2.70;99.90
11619;DHT22;5865;48.776;9.280;2024-01-11T16:11:44;-5.80;99.90
11619;DHT22;5865;48.776;9.280;2024-01-11T16:14:11;-3.10;99.90
11619;DHT22;5865;48.776;9.280;2024-01-11T16:16:38;-3.20;99.90
11619;DHT22;5865;48.776;9.280;2024-01-11T16:19:05;-3.30;99.90
11619;DHT22;5865;48.776;9.280;2024-01-11T16:21:32;-3.40;99.90
11619;DHT22;5865;48.776;9.280;2024-01-11T16:24:00;-3.50;99.90
11619;DHT22;5865;48.776;9.280;2024-01-11T16:26:28;-3.50;99.90
11619;DHT22;5865;48.776;9.280;2024-01-11T16:28:54;-3.60;99.90
11619;DHT22;5865;48.776;9.280;2024-01-11T16:31:21;-3.70;99.90
11619;DHT22;5865;48.776;9.280;2024-01-11T16:36:16;-4.00;99.90
11619;DHT22;5865;48.776;9.280;2024-01-11T16:38:43;-4.00;99.90
11619;DHT22;5865;48.776;9.280;2024-01-11T16:41:11;-4.00;99.90
11619;DHT22;5865;48.776;9.280;2024-01-11T16:43:39;-4.00;99.90
11619;DHT22;5865;48.776;9.280;2024-01-11T16:46:06;-4.10;99.90
11619;DHT22;5865;48.776;9.280;2024-01-11T16:48:33;-4.10;99.90
11619;DHT22;5865;48.776;9.280;2024-01-11T16:51:01;-4.10;99.90
11619;DHT22;5865;48.776;9.280;2024-01-11T16:53:27;-4.20;99.90
11619;DHT22;5865;48.776;9.280;2024-01-11T16:55:55;-4.30;99.90
11619;DHT22;5865;48.776;9.280;2024-01-11T16:58:24;-4.30;99.90
11619;DHT22;5865;48.776;9.280;2024-01-11T17:03:18;-4.40;99.90
11619;DHT22;5865;48.776;9.280;2024-01-11T17:05:45;-4.40;99.90
11619;DHT22;5865;48.776;9.280;2024-01-11T17:10:39;-4.50;99.90
11619;DHT22;5865;48.776;9.280;2024-01-11T17:13:06;-4.50;99.90
11619;DHT22;5865;48.776;9.280;2024-01-11T17:15:35;-4.60;99.90
11619;DHT22;5865;48.776;9.280;2024-01-11T17:18:02;-4.50;99.90
11619;DHT22;5865;48.776;9.280;2024-01-11T17:20:29;-4.50;99.90
11619;DHT22;5865;48.776;9.280;2024-01-11T17:22:56;-4.60;99.90
11619;DHT22;5865;48.776;9.280;2024-01-11T17:25:23;-4.60;99.90
11619;DHT22;5865;48.776;9.280;2024-01-11T17:27:50;-4.60;99.90
11619;DHT22;5865;48.776;9.280;2024-01-11T17:30:17;-4.70;99.90
11619;DHT22;5865;48.776;9.280;2024-01-11T17:32:46;-4.70;99.90
11619;DHT22;5865;48.776;9.280;2024-01-11T17:35:13;-4.70;99.90
11619;DHT22;5865;48.776;9.280;2024-01-11T17:37:40;-4.70;99.90
11619;DHT22;5865;48.776;9.280;2024-01-11T17:40:08;-4.80;99.90
11619;DHT22;5865;48.776;9.280;2024-01-11T17:45:03;-4.70;99.90
11619;DHT22;5865;48.776;9.280;2024-01-11T17:49:58;-4.70;99.90
11619;DHT22;5865;48.776;9.280;2024-01-11T17:54:54;-4.90;99.90
11619;DHT22;5865;48.776;9.280;2024-01-11T17:57:21;-4.90;99.90
11619;DHT22;5865;48.776;9.280;2024-01-11T17:59:48;-5.00;99.90
11619;DHT22;5865;48.776;9.280;2024-01-11T18:02:16;-4.90;99.90
11619;DHT22;5865;48.776;9.280;2024-01-11T18:04:43;-4.70;99.90
11619;DHT22;5865;48.776;9.280;2024-01-11T18:07:11;-4.70;99.90
11619;DHT22;5865;48.776;9.280;2024-01-11T18:09:38;-4.80;99.90
11619;DHT22;5865;48.776;9.280;2024-01-11T18:12:05;-5.00;99.90
11619;DHT22;5865;48.776;9.280;2024-01-11T18:14:32;-5.00;99.90
11619;DHT22;5865;48.776;9.280;2024-01-11T18:19:27;-5.10;99.90
11619;DHT22;5865;48.776;9.280;2024-01-11T18:21:54;-5.10;99.90
11619;DHT22;5865;48.776;9.280;2024-01-11T18:24:22;-5.20;99.90
11619;DHT22;5865;48.776;9.280;2024-01-11T18:26:49;-5.20;99.90
11619;DHT22;5865;48.776;9.280;2024-01-11T18:29:16;-5.20;99.90
11619;DHT22;5865;48.776;9.280;2024-01-11T18:31:43;-5.10;99.90
11619;DHT22;5865;48.776;9.280;2024-01-11T18:34:11;-5.20;99.90
11619;DHT22;5865;48.776;9.280;2024-01-11T18:36:45;-5.20;99.90
11619;DHT22;5865;48.776;9.280;2024-01-11T18:39:13;-5.30;99.90
11619;DHT22;5865;48.776;9.280;2024-01-11T18:41:42;-5.40;99.90
11619;DHT22;5865;48.776;9.280;2024-01-11T18:44:10;-5.40;99.90
11619;DHT22;5865;48.776;9.280;2024-01-11T18:46:38;-5.40;99.90
11619;DHT22;5865;48.776;9.280;2024-01-11T18:49:05;-5.40;99.90
11619;DHT22;5865;48.776;9.280;2024-01-11T18:51:33;-5.40;99.90
11619;DHT22;5865;48.776;9.280;2024-01-11T18:54:01;-5.50;99.90
11619;DHT22;5865;48.776;9.280;2024-01-11T18:56:27;-5.50;99.90
11619;DHT22;5865;48.776;9.280;2024-01-11T18:58:56;-5.50;99.90
11619;DHT22;5865;48.776;9.280;2024-01-11T19:01:23;-5.50;99.90
11619;DHT22;5865;48.776;9.280;2024-01-11T19:03:51;-5.50;99.90
11619;DHT22;5865;48.776;9.280;2024-01-11T19:08:45;-5.70;99.90
11619;DHT22;5865;48.776;9.280;2024-01-11T19:11:13;-5.70;99.90
11619;DHT22;5865;48.776;9.280;2024-01-11T19:13:40;-5.80;99.90
11619;DHT22;5865;48.776;9.280;2024-01-11T19:16:08;-5.80;99.90
11619;DHT22;5865;48.776;9.280;2024-01-11T19:18:35;-5.80;99.90
11619;DHT22;5865;48.776;9.280;2024-01-11T19:21:02;-5.80;99.90
11619;DHT22;5865;48.776;9.280;2024-01-11T19:23:30;-5.80;99.90
11619;DHT22;5865;48.776;9.280;2024-01-11T19:25:57;-5.70;99.90
11619;DHT22;5865;48.776;9.280;2024-01-11T19:28:24;-5.70;99.90
11619;DHT22;5865;48.776;9.280;2024-01-11T19:50:56;-6.10;99.90
11619;DHT22;5865;48.776;9.280;2024-01-11T21:30:59;-6.10;99.90
11619;DHT22;5865;48.776;9.280;2024-01-11T21:33:28;-6.10;99.90
11619;DHT22;5865;48.776;9.280;2024-01-11T21:36:10;-6.10;99.90
11619;DHT22;5865;48.776;9.280;2024-01-11T22:33:34;-6.60;99.90
11619;DHT22;5865;48.776;9.280;2024-01-11T22:49:47;-6.80;99.90
11619;DHT22;5865;48.776;9.280;2024-01-11T23:05:18;-6.80;99.90
11619;DHT22;5865;48.776;9.280;2024-01-11T23:07:46;-6.80;99.90
11619;DHT22;5865;48.776;9.280;2024-01-11T23:10:14;-6.80;99.90
11619;DHT22;5865;48.776;9.280;2024-01-11T23:12:43;-6.90;99.90
11619;DHT22;5865;48.776;9.280;2024-01-11T23:15:12;-6.90;99.90
11619;DHT22;5865;48.776;9.280;2024-01-11T23:20:07;-6.90;99.90
11619;DHT22;5865;48.776;9.280;2024-01-11T23:37:25;-6.90;99.90
11619;DHT22;5865;48.776;9.280;2024-01-11T23:39:53;-7.00;99.90
11619;DHT22;5865;48.776;9.280;2024-01-11T23:42:20;-7.00;99.90
11619;DHT22;5865;48.776;9.280;2024-01-11T23:44:47;-7.00;99.90
11619;DHT22;5865;48.776;9.280;2024-01-11T23:52:10;-6.90;99.90
11619;DHT22;5865;48.776;9.280;2024-01-11T23:54:36;-7.00;99.90
11619;DHT22;5865;48.776;9.280;2024-01-11T23:59:32;-6.90;99.90
